sensor_id;sensor_type;location;lat;lon;timestamp;P1;durP1;ratioP1;P2;durP2;ratioP2
14611;SDS011;7392;52.078;11.650;2022-08-21T00:00:55;1.00;;;0.80;;
14611;SDS011;7392;52.078;11.650;2022-08-21T00:03:23;0.70;;;0.70;;
14611;SDS011;7392;52.078;11.650;2022-08-21T00:05:53;0.70;;;0.60;;
14611;SDS011;7392;52.078;11.650;2022-08-21T00:08:21;0.60;;;0.60;;
14611;SDS011;7392;52.078;11.650;2022-08-21T00:10:49;0.67;;;0.67;;
14611;SDS011;7392;52.078;11.650;2022-08-21T00:13:18;0.57;;;0.57;;
14611;SDS011;7392;52.078;11.650;2022-08-21T00:15:47;0.40;;;0.40;;
14611;SDS011;7392;52.078;11.650;2022-08-21T00:18:15;0.30;;;0.30;;
14611;SDS011;7392;52.078;11.650;2022-08-21T00:20:44;0.77;;;0.77;;
14611;SDS011;7392;52.078;11.650;2022-08-21T00:23:14;0.50;;;0.50;;
14611;SDS011;7392;52.078;11.650;2022-08-21T00:25:42;0.70;;;0.70;;
14611;SDS011;7392;52.078;11.650;2022-08-21T00:28:12;0.60;;;0.60;;
14611;SDS011;7392;52.078;11.650;2022-08-21T00:30:41;1.03;;;0.60;;
14611;SDS011;7392;52.078;11.650;2022-08-21T00:33:10;0.90;;;0.50;;
14611;SDS011;7392;52.078;11.650;2022-08-21T00:35:39;0.60;;;0.60;;
14611;SDS011;7392;52.078;11.650;2022-08-21T00:38:09;0.73;;;0.60;;
14611;SDS011;7392;52.078;11.650;2022-08-21T00:40:40;0.50;;;0.40;;
14611;SDS011;7392;52.078;11.650;2022-08-21T00:43:11;0.30;;;0.30;;
14611;SDS011;7392;52.078;11.650;2022-08-21T00:45:42;0.50;;;0.50;;
14611;SDS011;7392;52.078;11.650;2022-08-21T00:48:11;0.50;;;0.50;;
14611;SDS011;7392;52.078;11.650;2022-08-21T00:50:41;0.50;;;0.40;;
14611;SDS011;7392;52.078;11.650;2022-08-21T00:53:13;0.43;;;0.40;;
14611;SDS011;7392;52.078;11.650;2022-08-21T00:55:43;0.30;;;0.30;;
14611;SDS011;7392;52.078;11.650;2022-08-21T00:58:13;0.93;;;0.53;;
14611;SDS011;7392;52.078;11.650;2022-08-21T01:00:45;0.60;;;0.50;;
14611;SDS011;7392;52.078;11.650;2022-08-21T01:03:16;0.40;;;0.40;;
14611;SDS011;7392;52.078;11.650;2022-08-21T01:05:49;0.50;;;0.40;;
14611;SDS011;7392;52.078;11.650;2022-08-21T01:08:18;0.30;;;0.30;;
14611;SDS011;7392;52.078;11.650;2022-08-21T01:10:49;0.30;;;0.30;;
14611;SDS011;7392;52.078;11.650;2022-08-21T01:13:24;0.20;;;0.20;;
14611;SDS011;7392;52.078;11.650;2022-08-21T01:15:54;0.37;;;0.37;;
14611;SDS011;7392;52.078;11.650;2022-08-21T01:18:25;0.50;;;0.40;;
14611;SDS011;7392;52.078;11.650;2022-08-21T01:21:03;0.30;;;0.30;;
14611;SDS011;7392;52.078;11.650;2022-08-21T01:23:33;0.50;;;0.50;;
14611;SDS011;7392;52.078;11.650;2022-08-21T01:26:02;0.40;;;0.40;;
14611;SDS011;7392;52.078;11.650;2022-08-21T01:28:31;0.30;;;0.30;;
14611;SDS011;7392;52.078;11.650;2022-08-21T01:31:05;0.30;;;0.30;;
14611;SDS011;7392;52.078;11.650;2022-08-21T01:33:35;0.30;;;0.30;;
14611;SDS011;7392;52.078;11.650;2022-08-21T01:36:06;0.30;;;0.30;;
14611;SDS011;7392;52.078;11.650;2022-08-21T01:38:34;0.37;;;0.37;;
14611;SDS011;7392;52.078;11.650;2022-08-21T01:41:02;0.30;;;0.10;;
14611;SDS011;7392;52.078;11.650;2022-08-21T01:43:29;0.27;;;0.27;;
14611;SDS011;7392;52.078;11.650;2022-08-21T01:46:05;0.40;;;0.40;;
14611;SDS011;7392;52.078;11.650;2022-08-21T01:48:33;0.40;;;0.40;;
14611;SDS011;7392;52.078;11.650;2022-08-21T01:51:01;0.53;;;0.43;;
14611;SDS011;7392;52.078;11.650;2022-08-21T01:53:31;0.27;;;0.27;;
14611;SDS011;7392;52.078;11.650;2022-08-21T01:56:03;0.43;;;0.30;;
14611;SDS011;7392;52.078;11.650;2022-08-21T01:58:38;0.30;;;0.30;;
14611;SDS011;7392;52.078;11.650;2022-08-21T02:01:06;0.30;;;0.30;;
14611;SDS011;7392;52.078;11.650;2022-08-21T02:03:34;0.40;;;0.40;;
14611;SDS011;7392;52.078;11.650;2022-08-21T02:06:03;0.40;;;0.40;;
14611;SDS011;7392;52.078;11.650;2022-08-21T02:08:33;0.33;;;0.33;;
14611;SDS011;7392;52.078;11.650;2022-08-21T02:11:01;0.40;;;0.40;;
14611;SDS011;7392;52.078;11.650;2022-08-21T02:13:29;0.30;;;0.30;;
14611;SDS011;7392;52.078;11.650;2022-08-21T02:15:57;0.40;;;0.40;;
14611;SDS011;7392;52.078;11.650;2022-08-21T02:18:25;0.27;;;0.27;;
14611;SDS011;7392;52.078;11.650;2022-08-21T02:20:53;0.33;;;0.33;;
14611;SDS011;7392;52.078;11.650;2022-08-21T02:23:22;0.30;;;0.30;;
14611;SDS011;7392;52.078;11.650;2022-08-21T02:25:54;0.43;;;0.30;;
14611;SDS011;7392;52.078;11.650;2022-08-21T02:28:22;0.40;;;0.30;;
14611;SDS011;7392;52.078;11.650;2022-08-21T02:30:53;0.20;;;0.20;;
14611;SDS011;7392;52.078;11.650;2022-08-21T02:33:22;0.30;;;0.30;;
14611;SDS011;7392;52.078;11.650;2022-08-21T02:35:51;0.70;;;0.50;;
14611;SDS011;7392;52.078;11.650;2022-08-21T02:38:21;0.20;;;0.20;;
14611;SDS011;7392;52.078;11.650;2022-08-21T02:40:51;0.37;;;0.37;;
14611;SDS011;7392;52.078;11.650;2022-08-21T02:43:23;0.40;;;0.40;;
14611;SDS011;7392;52.078;11.650;2022-08-21T02:45:52;0.40;;;0.40;;
14611;SDS011;7392;52.078;11.650;2022-08-21T02:48:23;0.30;;;0.30;;
14611;SDS011;7392;52.078;11.650;2022-08-21T02:50:54;0.60;;;0.50;;
14611;SDS011;7392;52.078;11.650;2022-08-21T02:53:24;0.30;;;0.30;;
14611;SDS011;7392;52.078;11.650;2022-08-21T02:55:53;0.20;;;0.20;;
14611;SDS011;7392;52.078;11.650;2022-08-21T02:58:25;0.27;;;0.23;;
14611;SDS011;7392;52.078;11.650;2022-08-21T03:00:55;0.77;;;0.40;;
14611;SDS011;7392;52.078;11.650;2022-08-21T03:03:23;0.30;;;0.20;;
14611;SDS011;7392;52.078;11.650;2022-08-21T03:05:53;0.73;;;0.60;;
14611;SDS011;7392;52.078;11.650;2022-08-21T03:08:21;0.40;;;0.40;;
14611;SDS011;7392;52.078;11.650;2022-08-21T03:10:53;0.70;;;0.50;;
14611;SDS011;7392;52.078;11.650;2022-08-21T03:13:23;0.43;;;0.40;;
14611;SDS011;7392;52.078;11.650;2022-08-21T03:15:51;0.50;;;0.43;;
14611;SDS011;7392;52.078;11.650;2022-08-21T03:18:19;0.53;;;0.30;;
14611;SDS011;7392;52.078;11.650;2022-08-21T03:20:47;0.23;;;0.23;;
14611;SDS011;7392;52.078;11.650;2022-08-21T03:23:15;0.20;;;0.20;;
14611;SDS011;7392;52.078;11.650;2022-08-21T03:25:45;0.30;;;0.30;;
14611;SDS011;7392;52.078;11.650;2022-08-21T03:28:14;0.33;;;0.33;;
14611;SDS011;7392;52.078;11.650;2022-08-21T03:30:46;0.30;;;0.30;;
14611;SDS011;7392;52.078;11.650;2022-08-21T03:33:16;0.20;;;0.20;;
14611;SDS011;7392;52.078;11.650;2022-08-21T03:35:47;0.67;;;0.40;;
14611;SDS011;7392;52.078;11.650;2022-08-21T03:38:20;0.40;;;0.40;;
14611;SDS011;7392;52.078;11.650;2022-08-21T03:40:52;0.30;;;0.30;;
14611;SDS011;7392;52.078;11.650;2022-08-21T03:43:20;0.50;;;0.40;;
14611;SDS011;7392;52.078;11.650;2022-08-21T03:45:49;0.30;;;0.30;;
14611;SDS011;7392;52.078;11.650;2022-08-21T03:48:18;0.50;;;0.30;;
14611;SDS011;7392;52.078;11.650;2022-08-21T03:50:46;0.30;;;0.30;;
14611;SDS011;7392;52.078;11.650;2022-08-21T03:53:16;0.47;;;0.47;;
14611;SDS011;7392;52.078;11.650;2022-08-21T03:55:44;0.40;;;0.40;;
14611;SDS011;7392;52.078;11.650;2022-08-21T03:58:13;0.50;;;0.30;;
14611;SDS011;7392;52.078;11.650;2022-08-21T04:00:43;0.40;;;0.40;;
14611;SDS011;7392;52.078;11.650;2022-08-21T04:03:13;0.50;;;0.30;;
14611;SDS011;7392;52.078;11.650;2022-08-21T04:05:41;0.40;;;0.40;;
14611;SDS011;7392;52.078;11.650;2022-08-21T04:08:12;0.47;;;0.40;;
14611;SDS011;7392;52.078;11.650;2022-08-21T04:10:41;0.20;;;0.20;;
14611;SDS011;7392;52.078;11.650;2022-08-21T04:13:11;0.60;;;0.50;;
14611;SDS011;7392;52.078;11.650;2022-08-21T04:15:40;0.50;;;0.50;;
14611;SDS011;7392;52.078;11.650;2022-08-21T04:18:09;0.53;;;0.40;;
14611;SDS011;7392;52.078;11.650;2022-08-21T04:20:39;0.33;;;0.33;;
14611;SDS011;7392;52.078;11.650;2022-08-21T04:23:15;0.40;;;0.40;;
14611;SDS011;7392;52.078;11.650;2022-08-21T04:25:50;0.70;;;0.50;;
14611;SDS011;7392;52.078;11.650;2022-08-21T04:28:18;0.30;;;0.30;;
14611;SDS011;7392;52.078;11.650;2022-08-21T04:30:48;0.87;;;0.43;;
14611;SDS011;7392;52.078;11.650;2022-08-21T04:33:16;0.80;;;0.70;;
14611;SDS011;7392;52.078;11.650;2022-08-21T04:35:46;0.43;;;0.43;;
14611;SDS011;7392;52.078;11.650;2022-08-21T04:38:15;0.60;;;0.53;;
14611;SDS011;7392;52.078;11.650;2022-08-21T04:40:43;0.53;;;0.40;;
14611;SDS011;7392;52.078;11.650;2022-08-21T04:43:11;0.70;;;0.70;;
14611;SDS011;7392;52.078;11.650;2022-08-21T04:45:40;0.50;;;0.50;;
14611;SDS011;7392;52.078;11.650;2022-08-21T04:48:11;0.60;;;0.50;;
14611;SDS011;7392;52.078;11.650;2022-08-21T04:50:41;0.40;;;0.40;;
14611;SDS011;7392;52.078;11.650;2022-08-21T04:53:16;0.50;;;0.50;;
14611;SDS011;7392;52.078;11.650;2022-08-21T04:55:47;0.60;;;0.57;;
14611;SDS011;7392;52.078;11.650;2022-08-21T04:58:16;0.53;;;0.50;;
14611;SDS011;7392;52.078;11.650;2022-08-21T05:00:46;0.40;;;0.40;;
14611;SDS011;7392;52.078;11.650;2022-08-21T05:03:15;0.40;;;0.40;;
14611;SDS011;7392;52.078;11.650;2022-08-21T05:05:45;0.50;;;0.50;;
14611;SDS011;7392;52.078;11.650;2022-08-21T05:08:15;0.40;;;0.37;;
14611;SDS011;7392;52.078;11.650;2022-08-21T05:10:46;0.50;;;0.50;;
14611;SDS011;7392;52.078;11.650;2022-08-21T05:13:14;0.50;;;0.50;;
14611;SDS011;7392;52.078;11.650;2022-08-21T05:15:43;0.57;;;0.50;;
14611;SDS011;7392;52.078;11.650;2022-08-21T05:18:11;0.50;;;0.30;;
14611;SDS011;7392;52.078;11.650;2022-08-21T05:20:39;0.50;;;0.50;;
14611;SDS011;7392;52.078;11.650;2022-08-21T05:23:07;0.60;;;0.60;;
14611;SDS011;7392;52.078;11.650;2022-08-21T05:25:37;0.50;;;0.40;;
14611;SDS011;7392;52.078;11.650;2022-08-21T05:28:07;0.70;;;0.50;;
14611;SDS011;7392;52.078;11.650;2022-08-21T05:30:35;0.40;;;0.40;;
14611;SDS011;7392;52.078;11.650;2022-08-21T05:33:04;0.80;;;0.50;;
14611;SDS011;7392;52.078;11.650;2022-08-21T05:35:34;0.47;;;0.47;;
14611;SDS011;7392;52.078;11.650;2022-08-21T05:38:02;0.40;;;0.40;;
14611;SDS011;7392;52.078;11.650;2022-08-21T05:40:41;0.43;;;0.43;;
14611;SDS011;7392;52.078;11.650;2022-08-21T05:43:09;0.87;;;0.53;;
14611;SDS011;7392;52.078;11.650;2022-08-21T05:45:37;0.80;;;0.50;;
14611;SDS011;7392;52.078;11.650;2022-08-21T05:48:09;0.47;;;0.40;;
14611;SDS011;7392;52.078;11.650;2022-08-21T05:50:38;0.57;;;0.50;;
14611;SDS011;7392;52.078;11.650;2022-08-21T05:53:07;0.73;;;0.70;;
14611;SDS011;7392;52.078;11.650;2022-08-21T05:55:36;1.87;;;1.10;;
14611;SDS011;7392;52.078;11.650;2022-08-21T05:58:12;0.90;;;0.80;;
14611;SDS011;7392;52.078;11.650;2022-08-21T06:00:40;1.90;;;1.20;;
14611;SDS011;7392;52.078;11.650;2022-08-21T06:03:11;1.80;;;1.20;;
14611;SDS011;7392;52.078;11.650;2022-08-21T06:05:40;1.37;;;1.00;;
14611;SDS011;7392;52.078;11.650;2022-08-21T06:08:08;1.47;;;1.10;;
14611;SDS011;7392;52.078;11.650;2022-08-21T06:10:36;1.43;;;1.20;;
14611;SDS011;7392;52.078;11.650;2022-08-21T06:13:04;1.17;;;0.90;;
14611;SDS011;7392;52.078;11.650;2022-08-21T06:15:33;2.17;;;1.40;;
14611;SDS011;7392;52.078;11.650;2022-08-21T06:18:02;2.10;;;1.10;;
14611;SDS011;7392;52.078;11.650;2022-08-21T06:20:30;1.87;;;1.30;;
14611;SDS011;7392;52.078;11.650;2022-08-21T06:22:59;1.00;;;0.90;;
14611;SDS011;7392;52.078;11.650;2022-08-21T06:25:27;1.87;;;1.23;;
14611;SDS011;7392;52.078;11.650;2022-08-21T06:27:59;0.80;;;0.80;;
14611;SDS011;7392;52.078;11.650;2022-08-21T06:30:28;1.37;;;0.90;;
14611;SDS011;7392;52.078;11.650;2022-08-21T06:32:58;1.37;;;1.00;;
14611;SDS011;7392;52.078;11.650;2022-08-21T06:35:26;1.53;;;1.00;;
14611;SDS011;7392;52.078;11.650;2022-08-21T06:37:56;1.10;;;1.00;;
14611;SDS011;7392;52.078;11.650;2022-08-21T06:40:24;1.30;;;1.00;;
14611;SDS011;7392;52.078;11.650;2022-08-21T06:42:55;1.30;;;0.90;;
14611;SDS011;7392;52.078;11.650;2022-08-21T06:45:24;1.17;;;0.90;;
14611;SDS011;7392;52.078;11.650;2022-08-21T06:47:58;0.90;;;0.80;;
14611;SDS011;7392;52.078;11.650;2022-08-21T06:50:26;1.30;;;1.00;;
14611;SDS011;7392;52.078;11.650;2022-08-21T06:53:00;2.13;;;1.17;;
14611;SDS011;7392;52.078;11.650;2022-08-21T06:55:30;1.43;;;1.10;;
14611;SDS011;7392;52.078;11.650;2022-08-21T06:57:58;1.57;;;1.10;;
14611;SDS011;7392;52.078;11.650;2022-08-21T07:00:26;1.33;;;1.03;;
14611;SDS011;7392;52.078;11.650;2022-08-21T07:02:57;0.93;;;0.83;;
14611;SDS011;7392;52.078;11.650;2022-08-21T07:05:28;1.70;;;1.20;;
14611;SDS011;7392;52.078;11.650;2022-08-21T07:07:57;1.30;;;0.80;;
14611;SDS011;7392;52.078;11.650;2022-08-21T07:10:26;1.50;;;1.00;;
14611;SDS011;7392;52.078;11.650;2022-08-21T07:12:54;1.63;;;1.20;;
14611;SDS011;7392;52.078;11.650;2022-08-21T07:15:27;1.10;;;0.83;;
14611;SDS011;7392;52.078;11.650;2022-08-21T07:17:56;2.60;;;1.20;;
14611;SDS011;7392;52.078;11.650;2022-08-21T07:20:27;1.20;;;1.00;;
14611;SDS011;7392;52.078;11.650;2022-08-21T07:22:55;1.20;;;1.10;;
14611;SDS011;7392;52.078;11.650;2022-08-21T07:25:25;2.07;;;1.03;;
14611;SDS011;7392;52.078;11.650;2022-08-21T07:27:53;1.60;;;1.10;;
14611;SDS011;7392;52.078;11.650;2022-08-21T07:30:21;1.27;;;0.93;;
14611;SDS011;7392;52.078;11.650;2022-08-21T07:32:50;1.20;;;0.93;;
14611;SDS011;7392;52.078;11.650;2022-08-21T07:35:21;2.13;;;1.00;;
14611;SDS011;7392;52.078;11.650;2022-08-21T07:37:51;2.00;;;1.10;;
14611;SDS011;7392;52.078;11.650;2022-08-21T07:40:19;1.23;;;0.80;;
14611;SDS011;7392;52.078;11.650;2022-08-21T07:42:47;2.27;;;1.00;;
14611;SDS011;7392;52.078;11.650;2022-08-21T07:45:18;2.03;;;1.10;;
14611;SDS011;7392;52.078;11.650;2022-08-21T07:47:47;1.33;;;0.80;;
14611;SDS011;7392;52.078;11.650;2022-08-21T07:50:22;2.27;;;1.20;;
14611;SDS011;7392;52.078;11.650;2022-08-21T07:52:51;2.67;;;1.20;;
14611;SDS011;7392;52.078;11.650;2022-08-21T07:55:21;1.37;;;1.00;;
14611;SDS011;7392;52.078;11.650;2022-08-21T07:57:49;2.60;;;0.97;;
14611;SDS011;7392;52.078;11.650;2022-08-21T08:00:18;5.00;;;1.30;;
14611;SDS011;7392;52.078;11.650;2022-08-21T08:02:48;3.93;;;1.10;;
14611;SDS011;7392;52.078;11.650;2022-08-21T08:05:18;1.97;;;1.10;;
14611;SDS011;7392;52.078;11.650;2022-08-21T08:07:48;3.53;;;1.30;;
14611;SDS011;7392;52.078;11.650;2022-08-21T08:10:17;2.50;;;1.13;;
14611;SDS011;7392;52.078;11.650;2022-08-21T08:12:46;1.47;;;1.00;;
14611;SDS011;7392;52.078;11.650;2022-08-21T08:15:15;1.57;;;0.90;;
14611;SDS011;7392;52.078;11.650;2022-08-21T08:17:48;1.87;;;1.00;;
14611;SDS011;7392;52.078;11.650;2022-08-21T08:20:16;3.07;;;1.40;;
14611;SDS011;7392;52.078;11.650;2022-08-21T08:22:46;1.80;;;1.20;;
14611;SDS011;7392;52.078;11.650;2022-08-21T08:25:16;1.97;;;1.37;;
14611;SDS011;7392;52.078;11.650;2022-08-21T08:27:46;3.20;;;1.50;;
14611;SDS011;7392;52.078;11.650;2022-08-21T08:30:15;1.73;;;0.90;;
14611;SDS011;7392;52.078;11.650;2022-08-21T08:32:44;1.67;;;1.00;;
14611;SDS011;7392;52.078;11.650;2022-08-21T08:35:14;1.93;;;1.00;;
14611;SDS011;7392;52.078;11.650;2022-08-21T08:37:42;2.17;;;1.10;;
14611;SDS011;7392;52.078;11.650;2022-08-21T08:40:20;1.40;;;0.97;;
14611;SDS011;7392;52.078;11.650;2022-08-21T08:43:08;3.53;;;1.40;;
14611;SDS011;7392;52.078;11.650;2022-08-21T08:45:41;1.77;;;1.13;;
14611;SDS011;7392;52.078;11.650;2022-08-21T08:48:14;2.83;;;1.17;;
14611;SDS011;7392;52.078;11.650;2022-08-21T08:51:04;1.53;;;1.07;;
14611;SDS011;7392;52.078;11.650;2022-08-21T08:53:37;3.30;;;1.10;;
14611;SDS011;7392;52.078;11.650;2022-08-21T08:59:13;1.70;;;0.97;;
14611;SDS011;7392;52.078;11.650;2022-08-21T09:01:56;2.33;;;1.20;;
14611;SDS011;7392;52.078;11.650;2022-08-21T09:04:44;0.90;;;0.70;;
14611;SDS011;7392;52.078;11.650;2022-08-21T09:07:47;1.97;;;1.00;;
14611;SDS011;7392;52.078;11.650;2022-08-21T09:10:47;1.20;;;0.70;;
14611;SDS011;7392;52.078;11.650;2022-08-21T09:13:42;0.97;;;0.80;;
14611;SDS011;7392;52.078;11.650;2022-08-21T09:16:27;1.17;;;0.80;;
14611;SDS011;7392;52.078;11.650;2022-08-21T09:19:07;1.80;;;1.10;;
14611;SDS011;7392;52.078;11.650;2022-08-21T09:21:57;1.03;;;0.87;;
14611;SDS011;7392;52.078;11.650;2022-08-21T09:24:42;1.33;;;0.90;;
14611;SDS011;7392;52.078;11.650;2022-08-21T09:27:18;0.60;;;0.60;;
14611;SDS011;7392;52.078;11.650;2022-08-21T09:29:57;1.57;;;0.87;;
14611;SDS011;7392;52.078;11.650;2022-08-21T09:32:36;1.57;;;0.93;;
14611;SDS011;7392;52.078;11.650;2022-08-21T09:35:11;1.83;;;1.03;;
14611;SDS011;7392;52.078;11.650;2022-08-21T09:37:51;2.53;;;1.20;;
14611;SDS011;7392;52.078;11.650;2022-08-21T09:40:32;2.33;;;1.10;;
14611;SDS011;7392;52.078;11.650;2022-08-21T09:43:15;2.60;;;1.00;;
14611;SDS011;7392;52.078;11.650;2022-08-21T09:46:01;3.77;;;1.27;;
14611;SDS011;7392;52.078;11.650;2022-08-21T09:48:40;2.30;;;0.90;;
14611;SDS011;7392;52.078;11.650;2022-08-21T09:51:22;2.60;;;0.97;;
14611;SDS011;7392;52.078;11.650;2022-08-21T09:53:52;3.73;;;1.30;;
14611;SDS011;7392;52.078;11.650;2022-08-21T09:56:28;1.73;;;1.00;;
14611;SDS011;7392;52.078;11.650;2022-08-21T09:59:18;2.33;;;1.20;;
14611;SDS011;7392;52.078;11.650;2022-08-21T10:01:53;2.33;;;1.20;;
14611;SDS011;7392;52.078;11.650;2022-08-21T10:04:40;3.30;;;1.43;;
14611;SDS011;7392;52.078;11.650;2022-08-21T10:07:13;2.90;;;1.30;;
14611;SDS011;7392;52.078;11.650;2022-08-21T10:09:42;2.67;;;1.20;;
14611;SDS011;7392;52.078;11.650;2022-08-21T10:12:12;2.53;;;1.23;;
14611;SDS011;7392;52.078;11.650;2022-08-21T10:14:45;1.97;;;1.10;;
14611;SDS011;7392;52.078;11.650;2022-08-21T10:17:24;3.13;;;0.90;;
14611;SDS011;7392;52.078;11.650;2022-08-21T10:20:07;0.97;;;0.77;;
14611;SDS011;7392;52.078;11.650;2022-08-21T10:23:02;0.97;;;0.70;;
14611;SDS011;7392;52.078;11.650;2022-08-21T10:25:37;0.70;;;0.60;;
14611;SDS011;7392;52.078;11.650;2022-08-21T10:28:47;0.93;;;0.53;;
14611;SDS011;7392;52.078;11.650;2022-08-21T10:31:35;0.98;;;0.60;;
14611;SDS011;7392;52.078;11.650;2022-08-21T10:34:23;1.40;;;0.73;;
14611;SDS011;7392;52.078;11.650;2022-08-21T10:37:07;0.67;;;0.50;;
14611;SDS011;7392;52.078;11.650;2022-08-21T10:40:04;0.98;;;0.68;;
14611;SDS011;7392;52.078;11.650;2022-08-21T10:42:41;1.25;;;0.63;;
14611;SDS011;7392;52.078;11.650;2022-08-21T10:45:22;1.20;;;0.70;;
14611;SDS011;7392;52.078;11.650;2022-08-21T10:48:02;3.42;;;0.88;;
14611;SDS011;7392;52.078;11.650;2022-08-21T10:50:34;3.63;;;1.55;;
14611;SDS011;7392;52.078;11.650;2022-08-21T10:53:14;3.08;;;1.50;;
14611;SDS011;7392;52.078;11.650;2022-08-21T10:56:01;1.30;;;1.10;;
14611;SDS011;7392;52.078;11.650;2022-08-21T11:01:52;2.28;;;1.20;;
14611;SDS011;7392;52.078;11.650;2022-08-21T11:04:25;3.05;;;1.33;;
14611;SDS011;7392;52.078;11.650;2022-08-21T11:07:18;3.05;;;1.30;;
14611;SDS011;7392;52.078;11.650;2022-08-21T11:09:57;2.90;;;1.13;;
14611;SDS011;7392;52.078;11.650;2022-08-21T11:12:34;2.20;;;1.30;;
14611;SDS011;7392;52.078;11.650;2022-08-21T11:15:14;3.50;;;1.40;;
14611;SDS011;7392;52.078;11.650;2022-08-21T11:17:57;2.38;;;1.27;;
14611;SDS011;7392;52.078;11.650;2022-08-21T11:20:33;1.45;;;1.10;;
14611;SDS011;7392;52.078;11.650;2022-08-21T11:23:08;2.55;;;1.00;;
14611;SDS011;7392;52.078;11.650;2022-08-21T11:25:42;1.60;;;0.98;;
14611;SDS011;7392;52.078;11.650;2022-08-21T11:28:15;1.90;;;1.25;;
14611;SDS011;7392;52.078;11.650;2022-08-21T11:30:50;1.97;;;1.10;;
14611;SDS011;7392;52.078;11.650;2022-08-21T11:33:29;1.58;;;0.90;;
14611;SDS011;7392;52.078;11.650;2022-08-21T11:36:09;2.53;;;1.10;;
14611;SDS011;7392;52.078;11.650;2022-08-21T11:38:48;1.95;;;1.25;;
14611;SDS011;7392;52.078;11.650;2022-08-21T11:41:25;4.43;;;1.50;;
14611;SDS011;7392;52.078;11.650;2022-08-21T11:44:01;4.03;;;1.70;;
14611;SDS011;7392;52.078;11.650;2022-08-21T11:46:41;3.88;;;1.60;;
14611;SDS011;7392;52.078;11.650;2022-08-21T11:49:22;2.15;;;1.27;;
14611;SDS011;7392;52.078;11.650;2022-08-21T11:52:11;3.35;;;1.63;;
14611;SDS011;7392;52.078;11.650;2022-08-21T11:54:48;1.80;;;1.23;;
14611;SDS011;7392;52.078;11.650;2022-08-21T11:57:23;2.83;;;1.27;;
14611;SDS011;7392;52.078;11.650;2022-08-21T11:59:56;4.55;;;1.88;;
14611;SDS011;7392;52.078;11.650;2022-08-21T12:02:38;4.25;;;1.52;;
14611;SDS011;7392;52.078;11.650;2022-08-21T12:05:11;3.30;;;1.48;;
14611;SDS011;7392;52.078;11.650;2022-08-21T12:08:00;4.47;;;1.85;;
14611;SDS011;7392;52.078;11.650;2022-08-21T12:10:34;5.78;;;1.90;;
14611;SDS011;7392;52.078;11.650;2022-08-21T12:13:07;3.45;;;1.40;;
14611;SDS011;7392;52.078;11.650;2022-08-21T12:15:40;2.38;;;1.42;;
14611;SDS011;7392;52.078;11.650;2022-08-21T12:18:20;1.80;;;1.30;;
14611;SDS011;7392;52.078;11.650;2022-08-21T12:20:58;2.88;;;1.40;;
14611;SDS011;7392;52.078;11.650;2022-08-21T12:23:32;4.40;;;1.48;;
14611;SDS011;7392;52.078;11.650;2022-08-21T12:26:14;2.65;;;1.67;;
14611;SDS011;7392;52.078;11.650;2022-08-21T12:28:47;3.58;;;1.60;;
14611;SDS011;7392;52.078;11.650;2022-08-21T12:31:20;4.10;;;1.52;;
14611;SDS011;7392;52.078;11.650;2022-08-21T12:33:51;1.75;;;1.20;;
14611;SDS011;7392;52.078;11.650;2022-08-21T12:36:24;2.17;;;1.25;;
14611;SDS011;7392;52.078;11.650;2022-08-21T12:39:04;2.03;;;1.10;;
14611;SDS011;7392;52.078;11.650;2022-08-21T12:41:43;1.85;;;1.20;;
14611;SDS011;7392;52.078;11.650;2022-08-21T12:44:20;2.60;;;1.23;;
14611;SDS011;7392;52.078;11.650;2022-08-21T12:46:51;2.70;;;1.30;;
14611;SDS011;7392;52.078;11.650;2022-08-21T12:49:24;2.60;;;1.20;;
14611;SDS011;7392;52.078;11.650;2022-08-21T12:52:00;2.15;;;1.20;;
14611;SDS011;7392;52.078;11.650;2022-08-21T12:54:32;4.03;;;1.60;;
14611;SDS011;7392;52.078;11.650;2022-08-21T12:57:08;2.80;;;1.35;;
14611;SDS011;7392;52.078;11.650;2022-08-21T12:59:44;1.38;;;1.25;;
14611;SDS011;7392;52.078;11.650;2022-08-21T13:02:15;1.95;;;1.13;;
14611;SDS011;7392;52.078;11.650;2022-08-21T13:04:46;2.38;;;1.45;;
14611;SDS011;7392;52.078;11.650;2022-08-21T13:07:19;2.25;;;1.20;;
14611;SDS011;7392;52.078;11.650;2022-08-21T13:09:55;2.30;;;1.20;;
14611;SDS011;7392;52.078;11.650;2022-08-21T13:12:27;4.22;;;1.70;;
14611;SDS011;7392;52.078;11.650;2022-08-21T13:14:59;3.33;;;1.40;;
14611;SDS011;7392;52.078;11.650;2022-08-21T13:17:34;3.05;;;1.40;;
14611;SDS011;7392;52.078;11.650;2022-08-21T13:20:08;2.05;;;1.20;;
14611;SDS011;7392;52.078;11.650;2022-08-21T13:22:40;1.75;;;1.35;;
14611;SDS011;7392;52.078;11.650;2022-08-21T13:25:10;2.40;;;1.27;;
14611;SDS011;7392;52.078;11.650;2022-08-21T13:27:45;1.90;;;1.20;;
14611;SDS011;7392;52.078;11.650;2022-08-21T13:30:33;2.60;;;1.13;;
14611;SDS011;7392;52.078;11.650;2022-08-21T13:33:03;1.73;;;1.13;;
14611;SDS011;7392;52.078;11.650;2022-08-21T13:35:46;2.38;;;1.05;;
14611;SDS011;7392;52.078;11.650;2022-08-21T13:38:15;1.50;;;1.00;;
14611;SDS011;7392;52.078;11.650;2022-08-21T13:40:45;3.00;;;1.42;;
14611;SDS011;7392;52.078;11.650;2022-08-21T13:43:19;2.80;;;1.48;;
14611;SDS011;7392;52.078;11.650;2022-08-21T13:45:51;2.78;;;1.30;;
14611;SDS011;7392;52.078;11.650;2022-08-21T13:48:20;2.58;;;1.48;;
14611;SDS011;7392;52.078;11.650;2022-08-21T13:50:51;2.25;;;1.20;;
14611;SDS011;7392;52.078;11.650;2022-08-21T13:53:21;1.88;;;1.30;;
14611;SDS011;7392;52.078;11.650;2022-08-21T13:55:50;2.90;;;1.40;;
14611;SDS011;7392;52.078;11.650;2022-08-21T13:58:25;2.42;;;1.10;;
14611;SDS011;7392;52.078;11.650;2022-08-21T14:00:55;2.00;;;1.27;;
14611;SDS011;7392;52.078;11.650;2022-08-21T14:03:31;1.38;;;1.05;;
14611;SDS011;7392;52.078;11.650;2022-08-21T14:06:01;1.88;;;1.15;;
14611;SDS011;7392;52.078;11.650;2022-08-21T14:08:31;1.02;;;0.82;;
14611;SDS011;7392;52.078;11.650;2022-08-21T14:11:03;2.03;;;1.15;;
14611;SDS011;7392;52.078;11.650;2022-08-21T14:13:36;2.05;;;1.23;;
14611;SDS011;7392;52.078;11.650;2022-08-21T14:16:14;2.40;;;1.30;;
14611;SDS011;7392;52.078;11.650;2022-08-21T14:18:45;1.65;;;1.13;;
14611;SDS011;7392;52.078;11.650;2022-08-21T14:21:24;3.88;;;1.40;;
14611;SDS011;7392;52.078;11.650;2022-08-21T14:24:05;2.00;;;1.55;;
14611;SDS011;7392;52.078;11.650;2022-08-21T14:26:41;1.50;;;0.98;;
14611;SDS011;7392;52.078;11.650;2022-08-21T14:29:15;2.15;;;1.02;;
14611;SDS011;7392;52.078;11.650;2022-08-21T14:31:49;1.98;;;1.33;;
14611;SDS011;7392;52.078;11.650;2022-08-21T14:34:18;1.45;;;1.10;;
14611;SDS011;7392;52.078;11.650;2022-08-21T14:36:48;2.08;;;1.23;;
14611;SDS011;7392;52.078;11.650;2022-08-21T14:39:17;2.40;;;1.40;;
14611;SDS011;7392;52.078;11.650;2022-08-21T14:41:45;3.78;;;1.40;;
14611;SDS011;7392;52.078;11.650;2022-08-21T14:44:16;2.75;;;1.40;;
14611;SDS011;7392;52.078;11.650;2022-08-21T14:46:45;2.47;;;1.15;;
14611;SDS011;7392;52.078;11.650;2022-08-21T14:49:23;1.70;;;1.15;;
14611;SDS011;7392;52.078;11.650;2022-08-21T14:51:53;1.10;;;0.90;;
14611;SDS011;7392;52.078;11.650;2022-08-21T14:54:24;1.52;;;0.98;;
14611;SDS011;7392;52.078;11.650;2022-08-21T14:56:57;1.20;;;0.98;;
14611;SDS011;7392;52.078;11.650;2022-08-21T14:59:30;1.33;;;1.00;;
14611;SDS011;7392;52.078;11.650;2022-08-21T15:01:59;1.77;;;1.08;;
14611;SDS011;7392;52.078;11.650;2022-08-21T15:04:27;2.50;;;1.27;;
14611;SDS011;7392;52.078;11.650;2022-08-21T15:06:55;1.52;;;1.00;;
14611;SDS011;7392;52.078;11.650;2022-08-21T15:09:23;2.35;;;1.35;;
14611;SDS011;7392;52.078;11.650;2022-08-21T15:11:52;1.52;;;1.20;;
14611;SDS011;7392;52.078;11.650;2022-08-21T15:14:23;2.53;;;1.27;;
14611;SDS011;7392;52.078;11.650;2022-08-21T15:16:54;2.88;;;1.63;;
14611;SDS011;7392;52.078;11.650;2022-08-21T15:19:22;2.55;;;1.58;;
14611;SDS011;7392;52.078;11.650;2022-08-21T15:21:50;2.00;;;1.38;;
14611;SDS011;7392;52.078;11.650;2022-08-21T15:24:18;1.40;;;1.23;;
14611;SDS011;7392;52.078;11.650;2022-08-21T15:26:46;2.65;;;1.42;;